sensor_id;sensor_type;location;lat;lon;timestamp;P1;durP1;ratioP1;P2;durP2;ratioP2
55210;SDS011;41082;52.822;6.666;2023-05-10T00:01:43;10.70;;;9.20;;
55210;SDS011;41082;52.822;6.666;2023-05-10T00:04:08;10.40;;;9.25;;
55210;SDS011;41082;52.822;6.666;2023-05-10T00:06:34;10.85;;;9.85;;
55210;SDS011;41082;52.822;6.666;2023-05-10T00:08:59;10.48;;;9.25;;
55210;SDS011;41082;52.822;6.666;2023-05-10T00:11:25;10.65;;;9.65;;
55210;SDS011;41082;52.822;6.666;2023-05-10T00:13:51;9.45;;;8.25;;
55210;SDS011;41082;52.822;6.666;2023-05-10T00:16:16;13.18;;;8.95;;
55210;SDS011;41082;52.822;6.666;2023-05-10T00:18:42;11.13;;;9.00;;
55210;SDS011;41082;52.822;6.666;2023-05-10T00:21:07;10.90;;;8.57;;
55210;SDS011;41082;52.822;6.666;2023-05-10T00:23:33;12.18;;;8.90;;
55210;SDS011;41082;52.822;6.666;2023-05-10T00:25:59;9.82;;;8.65;;
55210;SDS011;41082;52.822;6.666;2023-05-10T00:28:24;11.25;;;9.82;;
55210;SDS011;41082;52.822;6.666;2023-05-10T00:30:51;10.50;;;9.38;;
55210;SDS011;41082;52.822;6.666;2023-05-10T00:33:17;10.75;;;9.63;;
55210;SDS011;41082;52.822;6.666;2023-05-10T00:35:43;10.55;;;8.80;;
55210;SDS011;41082;52.822;6.666;2023-05-10T00:38:08;10.82;;;8.73;;
55210;SDS011;41082;52.822;6.666;2023-05-10T00:40:35;14.07;;;9.63;;
55210;SDS011;41082;52.822;6.666;2023-05-10T00:43:02;10.45;;;9.40;;
55210;SDS011;41082;52.822;6.666;2023-05-10T00:45:28;16.33;;;9.70;;
55210;SDS011;41082;52.822;6.666;2023-05-10T00:47:55;13.23;;;9.80;;
55210;SDS011;41082;52.822;6.666;2023-05-10T00:50:24;12.05;;;10.15;;
55210;SDS011;41082;52.822;6.666;2023-05-10T00:52:49;11.43;;;10.23;;
55210;SDS011;41082;52.822;6.666;2023-05-10T00:55:15;10.55;;;9.10;;
55210;SDS011;41082;52.822;6.666;2023-05-10T00:57:41;11.52;;;10.32;;
55210;SDS011;41082;52.822;6.666;2023-05-10T01:00:07;11.70;;;10.25;;
55210;SDS011;41082;52.822;6.666;2023-05-10T01:02:33;10.95;;;9.95;;
55210;SDS011;41082;52.822;6.666;2023-05-10T01:05:00;10.18;;;9.20;;
55210;SDS011;41082;52.822;6.666;2023-05-10T01:07:28;10.82;;;9.73;;
55210;SDS011;41082;52.822;6.666;2023-05-10T01:09:54;10.88;;;9.20;;
55210;SDS011;41082;52.822;6.666;2023-05-10T01:12:20;11.98;;;9.65;;
55210;SDS011;41082;52.822;6.666;2023-05-10T01:14:46;14.45;;;8.52;;
55210;SDS011;41082;52.822;6.666;2023-05-10T01:17:12;10.60;;;9.35;;
55210;SDS011;41082;52.822;6.666;2023-05-10T01:19:38;11.30;;;9.35;;
55210;SDS011;41082;52.822;6.666;2023-05-10T01:25:10;10.32;;;8.52;;
55210;SDS011;41082;52.822;6.666;2023-05-10T01:36:26;9.30;;;8.30;;
55210;SDS011;41082;52.822;6.666;2023-05-10T01:42:08;10.23;;;8.20;;
55210;SDS011;41082;52.822;6.666;2023-05-10T01:45:00;10.38;;;8.55;;
55210;SDS011;41082;52.822;6.666;2023-05-10T01:48:10;9.20;;;8.30;;
55210;SDS011;41082;52.822;6.666;2023-05-10T01:50:35;9.63;;;8.63;;
55210;SDS011;41082;52.822;6.666;2023-05-10T01:53:04;10.48;;;8.55;;
55210;SDS011;41082;52.822;6.666;2023-05-10T01:55:33;7.93;;;7.10;;
55210;SDS011;41082;52.822;6.666;2023-05-10T01:58:05;9.35;;;8.25;;
55210;SDS011;41082;52.822;6.666;2023-05-10T02:00:34;8.30;;;7.30;;
55210;SDS011;41082;52.822;6.666;2023-05-10T02:03:01;9.77;;;7.72;;
55210;SDS011;41082;52.822;6.666;2023-05-10T02:05:31;8.77;;;7.22;;
55210;SDS011;41082;52.822;6.666;2023-05-10T02:07:58;10.40;;;7.47;;
55210;SDS011;41082;52.822;6.666;2023-05-10T02:10:26;10.10;;;8.15;;
55210;SDS011;41082;52.822;6.666;2023-05-10T02:12:53;8.77;;;7.18;;
55210;SDS011;41082;52.822;6.666;2023-05-10T02:15:21;10.55;;;7.80;;
55210;SDS011;41082;52.822;6.666;2023-05-10T02:17:48;7.93;;;7.13;;
55210;SDS011;41082;52.822;6.666;2023-05-10T02:20:15;11.30;;;8.18;;
55210;SDS011;41082;52.822;6.666;2023-05-10T02:22:43;9.68;;;7.82;;
55210;SDS011;41082;52.822;6.666;2023-05-10T02:25:12;12.60;;;8.80;;
55210;SDS011;41082;52.822;6.666;2023-05-10T02:27:38;9.65;;;8.38;;
55210;SDS011;41082;52.822;6.666;2023-05-10T02:30:08;8.25;;;6.85;;
55210;SDS011;41082;52.822;6.666;2023-05-10T02:32:35;10.25;;;7.90;;
55210;SDS011;41082;52.822;6.666;2023-05-10T02:35:02;9.93;;;7.30;;
55210;SDS011;41082;52.822;6.666;2023-05-10T02:37:29;9.43;;;7.43;;
55210;SDS011;41082;52.822;6.666;2023-05-10T02:39:56;9.85;;;7.50;;
55210;SDS011;41082;52.822;6.666;2023-05-10T02:42:26;8.82;;;6.95;;
55210;SDS011;41082;52.822;6.666;2023-05-10T02:44:53;8.20;;;7.38;;
55210;SDS011;41082;52.822;6.666;2023-05-10T02:47:21;7.78;;;6.65;;
55210;SDS011;41082;52.822;6.666;2023-05-10T02:49:47;10.50;;;7.13;;
55210;SDS011;41082;52.822;6.666;2023-05-10T02:52:14;9.07;;;7.15;;
55210;SDS011;41082;52.822;6.666;2023-05-10T02:54:45;8.52;;;7.18;;
55210;SDS011;41082;52.822;6.666;2023-05-10T02:57:16;9.60;;;6.90;;
55210;SDS011;41082;52.822;6.666;2023-05-10T02:59:44;9.73;;;7.25;;
55210;SDS011;41082;52.822;6.666;2023-05-10T03:02:10;9.02;;;7.60;;
55210;SDS011;41082;52.822;6.666;2023-05-10T03:04:39;8.90;;;7.65;;
55210;SDS011;41082;52.822;6.666;2023-05-10T03:07:05;8.88;;;6.85;;
55210;SDS011;41082;52.822;6.666;2023-05-10T03:09:31;8.52;;;7.15;;
55210;SDS011;41082;52.822;6.666;2023-05-10T03:14:49;7.82;;;6.68;;
55210;SDS011;41082;52.822;6.666;2023-05-10T03:20:09;6.82;;;6.00;;
55210;SDS011;41082;52.822;6.666;2023-05-10T03:22:38;7.05;;;5.65;;
55210;SDS011;41082;52.822;6.666;2023-05-10T03:25:10;7.90;;;6.30;;
55210;SDS011;41082;52.822;6.666;2023-05-10T03:27:36;7.38;;;6.15;;
55210;SDS011;41082;52.822;6.666;2023-05-10T03:30:07;9.10;;;6.97;;
55210;SDS011;41082;52.822;6.666;2023-05-10T03:32:35;7.47;;;6.68;;
55210;SDS011;41082;52.822;6.666;2023-05-10T03:35:05;7.25;;;6.55;;
55210;SDS011;41082;52.822;6.666;2023-05-10T03:37:33;8.90;;;6.00;;
55210;SDS011;41082;52.822;6.666;2023-05-10T03:39:58;6.00;;;5.38;;
55210;SDS011;41082;52.822;6.666;2023-05-10T03:42:24;6.63;;;6.00;;
55210;SDS011;41082;52.822;6.666;2023-05-10T03:44:49;6.07;;;5.38;;
55210;SDS011;41082;52.822;6.666;2023-05-10T03:47:15;5.32;;;4.82;;
55210;SDS011;41082;52.822;6.666;2023-05-10T03:49:40;6.00;;;5.13;;
55210;SDS011;41082;52.822;6.666;2023-05-10T03:52:06;6.25;;;5.03;;
55210;SDS011;41082;52.822;6.666;2023-05-10T03:54:32;6.57;;;5.28;;
55210;SDS011;41082;52.822;6.666;2023-05-10T03:56:57;9.35;;;5.60;;
55210;SDS011;41082;52.822;6.666;2023-05-10T03:59:23;8.00;;;6.15;;
55210;SDS011;41082;52.822;6.666;2023-05-10T04:01:48;8.45;;;6.88;;
55210;SDS011;41082;52.822;6.666;2023-05-10T04:04:14;8.02;;;6.93;;
55210;SDS011;41082;52.822;6.666;2023-05-10T04:06:39;7.53;;;6.82;;
55210;SDS011;41082;52.822;6.666;2023-05-10T04:09:05;7.35;;;6.65;;
55210;SDS011;41082;52.822;6.666;2023-05-10T04:11:30;9.20;;;6.68;;
55210;SDS011;41082;52.822;6.666;2023-05-10T04:13:56;11.40;;;6.93;;
55210;SDS011;41082;52.822;6.666;2023-05-10T04:16:21;9.52;;;7.32;;
55210;SDS011;41082;52.822;6.666;2023-05-10T04:18:47;8.00;;;7.00;;
55210;SDS011;41082;52.822;6.666;2023-05-10T04:21:13;8.55;;;7.70;;
55210;SDS011;41082;52.822;6.666;2023-05-10T04:23:39;8.35;;;6.53;;
55210;SDS011;41082;52.822;6.666;2023-05-10T04:26:05;8.20;;;6.55;;
55210;SDS011;41082;52.822;6.666;2023-05-10T04:28:30;9.85;;;6.68;;
55210;SDS011;41082;52.822;6.666;2023-05-10T04:31:03;8.13;;;6.55;;
55210;SDS011;41082;52.822;6.666;2023-05-10T04:33:29;6.80;;;5.95;;
55210;SDS011;41082;52.822;6.666;2023-05-10T04:35:55;7.28;;;5.93;;
55210;SDS011;41082;52.822;6.666;2023-05-10T04:38:20;7.72;;;5.95;;
55210;SDS011;41082;52.822;6.666;2023-05-10T04:40:46;8.10;;;5.15;;
55210;SDS011;41082;52.822;6.666;2023-05-10T04:43:11;6.80;;;5.70;;
55210;SDS011;41082;52.822;6.666;2023-05-10T04:45:37;9.32;;;5.35;;
55210;SDS011;41082;52.822;6.666;2023-05-10T04:48:03;8.02;;;6.22;;
55210;SDS011;41082;52.822;6.666;2023-05-10T04:50:28;8.45;;;6.28;;
55210;SDS011;41082;52.822;6.666;2023-05-10T04:52:54;8.98;;;6.05;;
55210;SDS011;41082;52.822;6.666;2023-05-10T04:55:19;7.65;;;6.40;;
55210;SDS011;41082;52.822;6.666;2023-05-10T04:57:46;9.73;;;7.32;;
55210;SDS011;41082;52.822;6.666;2023-05-10T05:00:11;11.23;;;7.65;;
55210;SDS011;41082;52.822;6.666;2023-05-10T05:02:37;12.65;;;8.00;;
55210;SDS011;41082;52.822;6.666;2023-05-10T05:05:03;8.82;;;7.93;;
55210;SDS011;41082;52.822;6.666;2023-05-10T05:07:28;10.23;;;8.77;;
55210;SDS011;41082;52.822;6.666;2023-05-10T05:09:55;11.40;;;8.82;;
55210;SDS011;41082;52.822;6.666;2023-05-10T05:12:21;10.98;;;8.48;;
55210;SDS011;41082;52.822;6.666;2023-05-10T05:14:46;12.38;;;8.43;;
55210;SDS011;41082;52.822;6.666;2023-05-10T05:17:12;9.38;;;8.00;;
55210;SDS011;41082;52.822;6.666;2023-05-10T05:19:38;9.27;;;7.30;;
55210;SDS011;41082;52.822;6.666;2023-05-10T05:22:03;9.77;;;7.50;;
55210;SDS011;41082;52.822;6.666;2023-05-10T05:24:34;9.25;;;6.57;;
55210;SDS011;41082;52.822;6.666;2023-05-10T05:27:01;9.02;;;6.95;;
55210;SDS011;41082;52.822;6.666;2023-05-10T05:29:26;8.52;;;6.68;;
55210;SDS011;41082;52.822;6.666;2023-05-10T05:31:52;7.60;;;6.57;;
55210;SDS011;41082;52.822;6.666;2023-05-10T05:34:17;8.77;;;7.75;;
55210;SDS011;41082;52.822;6.666;2023-05-10T05:36:45;10.45;;;7.30;;
55210;SDS011;41082;52.822;6.666;2023-05-10T05:39:11;8.10;;;7.00;;
55210;SDS011;41082;52.822;6.666;2023-05-10T05:41:36;12.70;;;8.18;;
55210;SDS011;41082;52.822;6.666;2023-05-10T05:44:02;10.65;;;8.65;;
55210;SDS011;41082;52.822;6.666;2023-05-10T05:46:27;9.85;;;8.27;;
55210;SDS011;41082;52.822;6.666;2023-05-10T05:48:53;13.07;;;8.57;;
55210;SDS011;41082;52.822;6.666;2023-05-10T05:51:19;12.55;;;8.95;;
55210;SDS011;41082;52.822;6.666;2023-05-10T05:53:45;13.48;;;8.27;;
55210;SDS011;41082;52.822;6.666;2023-05-10T05:56:10;10.20;;;7.65;;
55210;SDS011;41082;52.822;6.666;2023-05-10T05:58:36;11.00;;;8.75;;
55210;SDS011;41082;52.822;6.666;2023-05-10T06:01:01;10.65;;;7.90;;
55210;SDS011;41082;52.822;6.666;2023-05-10T06:03:27;13.07;;;9.38;;
55210;SDS011;41082;52.822;6.666;2023-05-10T06:05:52;12.60;;;8.60;;
55210;SDS011;41082;52.822;6.666;2023-05-10T06:08:18;13.68;;;9.20;;
55210;SDS011;41082;52.822;6.666;2023-05-10T06:10:43;14.05;;;8.73;;
55210;SDS011;41082;52.822;6.666;2023-05-10T06:13:10;12.68;;;8.65;;
55210;SDS011;41082;52.822;6.666;2023-05-10T06:15:35;11.30;;;8.38;;
55210;SDS011;41082;52.822;6.666;2023-05-10T06:18:01;13.20;;;8.60;;
55210;SDS011;41082;52.822;6.666;2023-05-10T06:20:27;12.10;;;7.15;;
55210;SDS011;41082;52.822;6.666;2023-05-10T06:22:52;10.75;;;7.70;;
55210;SDS011;41082;52.822;6.666;2023-05-10T06:25:18;10.27;;;6.82;;
55210;SDS011;41082;52.822;6.666;2023-05-10T06:27:44;9.15;;;7.05;;
55210;SDS011;41082;52.822;6.666;2023-05-10T06:30:09;8.85;;;6.43;;
55210;SDS011;41082;52.822;6.666;2023-05-10T06:32:36;9.70;;;6.30;;
55210;SDS011;41082;52.822;6.666;2023-05-10T06:35:01;13.00;;;6.40;;
55210;SDS011;41082;52.822;6.666;2023-05-10T06:37:27;9.68;;;5.45;;
55210;SDS011;41082;52.822;6.666;2023-05-10T06:39:53;8.77;;;5.55;;
55210;SDS011;41082;52.822;6.666;2023-05-10T06:42:18;5.60;;;4.95;;
55210;SDS011;41082;52.822;6.666;2023-05-10T06:44:44;6.72;;;4.60;;
55210;SDS011;41082;52.822;6.666;2023-05-10T06:47:09;6.47;;;4.65;;
55210;SDS011;41082;52.822;6.666;2023-05-10T06:49:35;6.50;;;3.92;;
55210;SDS011;41082;52.822;6.666;2023-05-10T06:52:00;8.95;;;4.43;;
55210;SDS011;41082;52.822;6.666;2023-05-10T06:54:26;6.82;;;4.32;;
55210;SDS011;41082;52.822;6.666;2023-05-10T06:56:51;5.63;;;3.80;;
55210;SDS011;41082;52.822;6.666;2023-05-10T06:59:17;5.68;;;3.90;;
55210;SDS011;41082;52.822;6.666;2023-05-10T07:01:44;5.97;;;3.90;;
55210;SDS011;41082;52.822;6.666;2023-05-10T07:04:09;6.43;;;3.97;;
55210;SDS011;41082;52.822;6.666;2023-05-10T07:06:35;5.13;;;3.65;;
55210;SDS011;41082;52.822;6.666;2023-05-10T07:09:01;4.70;;;3.85;;
55210;SDS011;41082;52.822;6.666;2023-05-10T07:11:26;5.43;;;3.50;;
55210;SDS011;41082;52.822;6.666;2023-05-10T07:13:52;6.93;;;3.33;;
55210;SDS011;41082;52.822;6.666;2023-05-10T07:16:18;3.88;;;3.47;;
55210;SDS011;41082;52.822;6.666;2023-05-10T07:18:43;4.28;;;3.50;;
55210;SDS011;41082;52.822;6.666;2023-05-10T07:21:09;5.68;;;3.55;;
55210;SDS011;41082;52.822;6.666;2023-05-10T07:23:34;5.15;;;4.63;;
55210;SDS011;41082;52.822;6.666;2023-05-10T07:26:00;5.03;;;3.40;;
55210;SDS011;41082;52.822;6.666;2023-05-10T07:28:27;5.50;;;3.90;;
55210;SDS011;41082;52.822;6.666;2023-05-10T07:30:52;4.85;;;3.53;;
55210;SDS011;41082;52.822;6.666;2023-05-10T07:33:18;6.15;;;4.00;;
55210;SDS011;41082;52.822;6.666;2023-05-10T07:35:44;5.38;;;3.92;;
55210;SDS011;41082;52.822;6.666;2023-05-10T07:38:09;8.43;;;4.57;;
55210;SDS011;41082;52.822;6.666;2023-05-10T07:40:36;6.32;;;3.95;;
55210;SDS011;41082;52.822;6.666;2023-05-10T07:43:02;5.93;;;3.83;;
55210;SDS011;41082;52.822;6.666;2023-05-10T07:45:28;5.03;;;3.97;;
55210;SDS011;41082;52.822;6.666;2023-05-10T07:47:53;4.07;;;3.50;;
55210;SDS011;41082;52.822;6.666;2023-05-10T07:50:19;5.32;;;3.70;;
55210;SDS011;41082;52.822;6.666;2023-05-10T07:52:46;5.13;;;4.25;;
55210;SDS011;41082;52.822;6.666;2023-05-10T07:55:11;4.32;;;3.88;;
55210;SDS011;41082;52.822;6.666;2023-05-10T07:57:37;8.50;;;4.00;;
55210;SDS011;41082;52.822;6.666;2023-05-10T08:00:03;4.57;;;3.17;;
55210;SDS011;41082;52.822;6.666;2023-05-10T08:02:29;3.72;;;2.90;;
55210;SDS011;41082;52.822;6.666;2023-05-10T08:04:55;4.28;;;2.92;;
55210;SDS011;41082;52.822;6.666;2023-05-10T08:07:20;3.85;;;3.13;;
55210;SDS011;41082;52.822;6.666;2023-05-10T08:09:46;4.32;;;3.13;;
55210;SDS011;41082;52.822;6.666;2023-05-10T08:12:12;3.85;;;2.53;;
55210;SDS011;41082;52.822;6.666;2023-05-10T08:14:37;2.97;;;2.42;;
55210;SDS011;41082;52.822;6.666;2023-05-10T08:17:03;4.55;;;2.75;;
55210;SDS011;41082;52.822;6.666;2023-05-10T08:19:29;4.03;;;2.65;;
55210;SDS011;41082;52.822;6.666;2023-05-10T08:21:55;3.35;;;2.80;;
55210;SDS011;41082;52.822;6.666;2023-05-10T08:24:21;4.90;;;2.97;;
55210;SDS011;41082;52.822;6.666;2023-05-10T08:26:47;6.30;;;3.22;;
55210;SDS011;41082;52.822;6.666;2023-05-10T08:29:13;3.83;;;2.60;;
55210;SDS011;41082;52.822;6.666;2023-05-10T08:31:38;4.00;;;2.90;;
55210;SDS011;41082;52.822;6.666;2023-05-10T08:34:04;7.40;;;3.22;;
55210;SDS011;41082;52.822;6.666;2023-05-10T08:36:30;5.20;;;3.08;;
55210;SDS011;41082;52.822;6.666;2023-05-10T08:38:57;5.00;;;2.75;;
55210;SDS011;41082;52.822;6.666;2023-05-10T08:41:23;3.47;;;2.53;;
55210;SDS011;41082;52.822;6.666;2023-05-10T08:43:51;5.90;;;2.28;;
55210;SDS011;41082;52.822;6.666;2023-05-10T08:46:18;5.47;;;2.53;;
55210;SDS011;41082;52.822;6.666;2023-05-10T08:48:45;3.63;;;2.50;;
55210;SDS011;41082;52.822;6.666;2023-05-10T08:51:35;6.20;;;3.45;;
55210;SDS011;41082;52.822;6.666;2023-05-10T08:54:01;4.78;;;3.03;;
55210;SDS011;41082;52.822;6.666;2023-05-10T08:56:27;3.83;;;2.92;;
55210;SDS011;41082;52.822;6.666;2023-05-10T08:58:53;5.70;;;3.47;;
55210;SDS011;41082;52.822;6.666;2023-05-10T09:01:20;5.28;;;3.17;;
55210;SDS011;41082;52.822;6.666;2023-05-10T09:03:46;7.32;;;3.25;;
55210;SDS011;41082;52.822;6.666;2023-05-10T09:06:13;5.10;;;3.30;;
55210;SDS011;41082;52.822;6.666;2023-05-10T09:08:39;4.10;;;2.63;;
55210;SDS011;41082;52.822;6.666;2023-05-10T09:11:06;3.58;;;2.90;;
55210;SDS011;41082;52.822;6.666;2023-05-10T09:13:33;3.92;;;3.05;;
55210;SDS011;41082;52.822;6.666;2023-05-10T09:16:00;4.18;;;2.85;;
55210;SDS011;41082;52.822;6.666;2023-05-10T09:18:26;6.90;;;3.13;;
55210;SDS011;41082;52.822;6.666;2023-05-10T09:20:52;4.45;;;3.33;;
55210;SDS011;41082;52.822;6.666;2023-05-10T09:23:17;3.83;;;3.22;;
55210;SDS011;41082;52.822;6.666;2023-05-10T09:25:43;4.80;;;3.70;;
55210;SDS011;41082;52.822;6.666;2023-05-10T09:28:08;8.05;;;3.90;;
55210;SDS011;41082;52.822;6.666;2023-05-10T09:30:36;6.78;;;3.92;;
55210;SDS011;41082;52.822;6.666;2023-05-10T09:33:01;4.97;;;4.10;;
55210;SDS011;41082;52.822;6.666;2023-05-10T09:35:28;7.68;;;4.30;;
55210;SDS011;41082;52.822;6.666;2023-05-10T09:37:56;8.15;;;4.50;;
55210;SDS011;41082;52.822;6.666;2023-05-10T09:40:24;4.82;;;4.32;;
55210;SDS011;41082;52.822;6.666;2023-05-10T09:42:58;7.50;;;5.63;;
55210;SDS011;41082;52.822;6.666;2023-05-10T09:45:30;6.93;;;5.70;;
55210;SDS011;41082;52.822;6.666;2023-05-10T09:47:56;6.95;;;5.20;;
55210;SDS011;41082;52.822;6.666;2023-05-10T09:50:24;6.70;;;5.68;;
55210;SDS011;41082;52.822;6.666;2023-05-10T09:52:54;7.70;;;6.07;;
55210;SDS011;41082;52.822;6.666;2023-05-10T09:55:26;8.98;;;6.18;;
55210;SDS011;41082;52.822;6.666;2023-05-10T09:58:01;7.28;;;6.47;;
55210;SDS011;41082;52.822;6.666;2023-05-10T10:00:27;9.48;;;6.38;;
55210;SDS011;41082;52.822;6.666;2023-05-10T10:02:59;7.72;;;6.18;;
55210;SDS011;41082;52.822;6.666;2023-05-10T10:05:28;7.75;;;6.05;;
55210;SDS011;41082;52.822;6.666;2023-05-10T10:07:55;6.88;;;6.18;;
55210;SDS011;41082;52.822;6.666;2023-05-10T10:10:22;8.45;;;6.85;;
55210;SDS011;41082;52.822;6.666;2023-05-10T10:12:49;6.63;;;5.65;;
55210;SDS011;41082;52.822;6.666;2023-05-10T10:15:14;7.55;;;6.18;;
55210;SDS011;41082;52.822;6.666;2023-05-10T10:17:41;6.65;;;4.47;;
55210;SDS011;41082;52.822;6.666;2023-05-10T10:20:08;7.50;;;5.43;;
55210;SDS011;41082;52.822;6.666;2023-05-10T10:22:34;7.50;;;5.82;;
55210;SDS011;41082;52.822;6.666;2023-05-10T10:25:01;6.05;;;4.88;;
55210;SDS011;41082;52.822;6.666;2023-05-10T10:35:53;12.20;;;7.40;;
55210;SDS011;41082;52.822;6.666;2023-05-10T10:38:20;9.32;;;6.97;;
55210;SDS011;41082;52.822;6.666;2023-05-10T10:40:46;8.10;;;6.18;;
55210;SDS011;41082;52.822;6.666;2023-05-10T10:43:25;8.52;;;6.35;;
55210;SDS011;41082;52.822;6.666;2023-05-10T10:48:40;6.32;;;5.70;;
55210;SDS011;41082;52.822;6.666;2023-05-10T10:51:11;7.30;;;5.97;;
55210;SDS011;41082;52.822;6.666;2023-05-10T10:53:38;5.65;;;5.15;;
55210;SDS011;41082;52.822;6.666;2023-05-10T10:56:09;5.97;;;5.35;;
55210;SDS011;41082;52.822;6.666;2023-05-10T10:58:38;7.35;;;5.22;;
55210;SDS011;41082;52.822;6.666;2023-05-10T11:01:14;6.43;;;5.40;;
55210;SDS011;41082;52.822;6.666;2023-05-10T11:03:54;9.60;;;6.00;;
55210;SDS011;41082;52.822;6.666;2023-05-10T11:08:59;5.22;;;4.53;;
55210;SDS011;41082;52.822;6.666;2023-05-10T11:11:30;4.88;;;3.63;;
55210;SDS011;41082;52.822;6.666;2023-05-10T11:13:56;5.75;;;4.13;;
55210;SDS011;41082;52.822;6.666;2023-05-10T11:16:28;5.95;;;4.03;;
55210;SDS011;41082;52.822;6.666;2023-05-10T11:19:09;6.50;;;4.13;;
55210;SDS011;41082;52.822;6.666;2023-05-10T11:21:49;6.35;;;4.72;;
55210;SDS011;41082;52.822;6.666;2023-05-10T11:24:22;5.20;;;4.32;;
55210;SDS011;41082;52.822;6.666;2023-05-10T11:26:52;5.95;;;4.22;;
55210;SDS011;41082;52.822;6.666;2023-05-10T11:29:18;5.50;;;4.03;;
55210;SDS011;41082;52.822;6.666;2023-05-10T11:31:45;4.88;;;3.33;;
55210;SDS011;41082;52.822;6.666;2023-05-10T11:34:12;5.45;;;3.60;;
55210;SDS011;41082;52.822;6.666;2023-05-10T11:36:52;4.32;;;3.40;;
55210;SDS011;41082;52.822;6.666;2023-05-10T11:39:19;4.30;;;3.35;;
55210;SDS011;41082;52.822;6.666;2023-05-10T11:41:48;5.28;;;3.83;;
55210;SDS011;41082;52.822;6.666;2023-05-10T11:44:14;5.38;;;4.15;;
55210;SDS011;41082;52.822;6.666;2023-05-10T11:46:40;7.30;;;4.60;;
55210;SDS011;41082;52.822;6.666;2023-05-10T11:49:06;6.35;;;4.65;;
55210;SDS011;41082;52.822;6.666;2023-05-10T11:51:35;5.50;;;4.88;;
55210;SDS011;41082;52.822;6.666;2023-05-10T11:54:02;7.40;;;4.90;;
55210;SDS011;41082;52.822;6.666;2023-05-10T11:56:36;7.45;;;6.00;;
55210;SDS011;41082;52.822;6.666;2023-05-10T11:59:05;8.68;;;5.95;;
55210;SDS011;41082;52.822;6.666;2023-05-10T12:01:31;8.70;;;5.85;;
55210;SDS011;41082;52.822;6.666;2023-05-10T12:03:57;7.70;;;6.07;;
55210;SDS011;41082;52.822;6.666;2023-05-10T12:06:26;6.95;;;6.05;;
55210;SDS011;41082;52.822;6.666;2023-05-10T12:08:53;7.57;;;5.57;;
55210;SDS011;41082;52.822;6.666;2023-05-10T12:11:19;7.28;;;5.70;;
55210;SDS011;41082;52.822;6.666;2023-05-10T12:13:46;7.72;;;6.00;;
55210;SDS011;41082;52.822;6.666;2023-05-10T12:16:16;7.28;;;6.10;;
55210;SDS011;41082;52.822;6.666;2023-05-10T12:18:50;9.18;;;6.75;;
55210;SDS011;41082;52.822;6.666;2023-05-10T12:21:17;8.32;;;6.53;;
55210;SDS011;41082;52.822;6.666;2023-05-10T12:23:45;7.72;;;6.43;;
55210;SDS011;41082;52.822;6.666;2023-05-10T12:26:17;10.98;;;7.28;;
55210;SDS011;41082;52.822;6.666;2023-05-10T12:28:43;9.02;;;7.55;;
55210;SDS011;41082;52.822;6.666;2023-05-10T12:31:09;11.43;;;7.25;;
55210;SDS011;41082;52.822;6.666;2023-05-10T12:33:39;8.68;;;7.78;;
55210;SDS011;41082;52.822;6.666;2023-05-10T12:36:07;11.70;;;8.90;;
55210;SDS011;41082;52.822;6.666;2023-05-10T12:38:35;11.70;;;9.00;;
55210;SDS011;41082;52.822;6.666;2023-05-10T12:41:03;12.35;;;8.05;;
55210;SDS011;41082;52.822;6.666;2023-05-10T12:43:30;11.20;;;8.40;;
55210;SDS011;41082;52.822;6.666;2023-05-10T12:45:56;11.00;;;8.57;;
55210;SDS011;41082;52.822;6.666;2023-05-10T12:48:22;11.32;;;8.80;;
55210;SDS011;41082;52.822;6.666;2023-05-10T12:50:48;9.25;;;8.18;;
55210;SDS011;41082;52.822;6.666;2023-05-10T12:53:14;8.88;;;7.18;;
55210;SDS011;41082;52.822;6.666;2023-05-10T12:55:40;10.52;;;8.43;;
55210;SDS011;41082;52.822;6.666;2023-05-10T12:58:06;11.75;;;7.78;;
55210;SDS011;41082;52.822;6.666;2023-05-10T13:00:32;8.23;;;6.80;;
55210;SDS011;41082;52.822;6.666;2023-05-10T13:02:58;8.77;;;7.00;;
55210;SDS011;41082;52.822;6.666;2023-05-10T13:05:23;9.10;;;6.95;;
55210;SDS011;41082;52.822;6.666;2023-05-10T13:07:49;7.30;;;6.15;;
55210;SDS011;41082;52.822;6.666;2023-05-10T13:10:15;9.40;;;6.57;;
55210;SDS011;41082;52.822;6.666;2023-05-10T13:12:41;7.45;;;6.05;;
55210;SDS011;41082;52.822;6.666;2023-05-10T13:15:07;7.38;;;6.25;;
55210;SDS011;41082;52.822;6.666;2023-05-10T13:17:33;9.55;;;6.43;;
55210;SDS011;41082;52.822;6.666;2023-05-10T13:19:58;8.52;;;6.72;;
55210;SDS011;41082;52.822;6.666;2023-05-10T13:22:24;9.70;;;7.47;;
55210;SDS011;41082;52.822;6.666;2023-05-10T13:24:49;8.93;;;7.20;;
55210;SDS011;41082;52.822;6.666;2023-05-10T13:27:15;10.93;;;8.75;;
55210;SDS011;41082;52.822;6.666;2023-05-10T13:29:41;9.23;;;6.20;;
55210;SDS011;41082;52.822;6.666;2023-05-10T13:32:06;7.30;;;5.93;;
55210;SDS011;41082;52.822;6.666;2023-05-10T13:34:32;9.90;;;6.28;;
55210;SDS011;41082;52.822;6.666;2023-05-10T13:36:58;11.18;;;7.40;;
55210;SDS011;41082;52.822;6.666;2023-05-10T13:39:24;12.15;;;7.80;;
55210;SDS011;41082;52.822;6.666;2023-05-10T13:41:50;12.68;;;8.13;;
55210;SDS011;41082;52.822;6.666;2023-05-10T13:44:15;11.40;;;8.25;;
55210;SDS011;41082;52.822;6.666;2023-05-10T13:46:41;16.17;;;8.60;;
55210;SDS011;41082;52.822;6.666;2023-05-10T13:49:08;13.65;;;9.15;;
55210;SDS011;41082;52.822;6.666;2023-05-10T13:51:34;15.68;;;8.63;;
55210;SDS011;41082;52.822;6.666;2023-05-10T13:54:00;12.43;;;8.80;;
55210;SDS011;41082;52.822;6.666;2023-05-10T13:56:26;14.30;;;8.70;;
55210;SDS011;41082;52.822;6.666;2023-05-10T13:58:52;10.35;;;7.72;;
55210;SDS011;41082;52.822;6.666;2023-05-10T14:01:18;11.90;;;7.72;;
55210;SDS011;41082;52.822;6.666;2023-05-10T14:03:44;10.63;;;6.78;;
55210;SDS011;41082;52.822;6.666;2023-05-10T14:06:09;9.45;;;6.60;;
55210;SDS011;41082;52.822;6.666;2023-05-10T14:08:35;9.55;;;6.15;;
55210;SDS011;41082;52.822;6.666;2023-05-10T14:11:01;10.00;;;6.38;;
55210;SDS011;41082;52.822;6.666;2023-05-10T14:13:27;10.32;;;6.85;;
55210;SDS011;41082;52.822;6.666;2023-05-10T14:15:53;10.43;;;6.65;;
55210;SDS011;41082;52.822;6.666;2023-05-10T14:18:19;9.57;;;6.95;;
55210;SDS011;41082;52.822;6.666;2023-05-10T14:20:44;9.20;;;7.05;;
55210;SDS011;41082;52.822;6.666;2023-05-10T14:23:10;8.50;;;6.75;;
55210;SDS011;41082;52.822;6.666;2023-05-10T14:25:36;9.10;;;6.95;;
55210;SDS011;41082;52.822;6.666;2023-05-10T14:28:02;10.95;;;7.38;;
55210;SDS011;41082;52.822;6.666;2023-05-10T14:30:28;11.68;;;7.10;;
55210;SDS011;41082;52.822;6.666;2023-05-10T14:32:54;9.90;;;6.97;;
55210;SDS011;41082;52.822;6.666;2023-05-10T14:35:20;10.48;;;7.78;;
55210;SDS011;41082;52.822;6.666;2023-05-10T14:37:46;12.38;;;7.90;;
55210;SDS011;41082;52.822;6.666;2023-05-10T14:40:11;10.00;;;7.65;;
55210;SDS011;41082;52.822;6.666;2023-05-10T14:42:37;10.23;;;7.20;;
55210;SDS011;41082;52.822;6.666;2023-05-10T14:45:03;10.50;;;8.10;;
55210;SDS011;41082;52.822;6.666;2023-05-10T14:47:29;12.80;;;8.20;;
55210;SDS011;41082;52.822;6.666;2023-05-10T14:49:55;10.35;;;7.78;;
55210;SDS011;41082;52.822;6.666;2023-05-10T14:52:20;12.60;;;8.73;;
55210;SDS011;41082;52.822;6.666;2023-05-10T14:54:46;11.18;;;7.93;;
55210;SDS011;41082;52.822;6.666;2023-05-10T14:57:11;10.52;;;8.10;;
55210;SDS011;41082;52.822;6.666;2023-05-10T14:59:37;10.05;;;8.13;;
55210;SDS011;41082;52.822;6.666;2023-05-10T15:02:03;10.20;;;7.78;;
55210;SDS011;41082;52.822;6.666;2023-05-10T15:04:29;10.43;;;7.70;;
55210;SDS011;41082;52.822;6.666;2023-05-10T15:06:55;8.73;;;6.43;;
55210;SDS011;41082;52.822;6.666;2023-05-10T15:09:24;8.80;;;6.35;;
55210;SDS011;41082;52.822;6.666;2023-05-10T15:11:49;7.80;;;6.00;;
55210;SDS011;41082;52.822;6.666;2023-05-10T15:14:15;9.23;;;6.28;;
55210;SDS011;41082;52.822;6.666;2023-05-10T15:16:40;9.93;;;6.50;;